Time;durP1;ratioP1;P1;durP2;ratioP2;P2;SDS_P1;SDS_P2;PMS_P1;PMS_P2;Temp;Humidity;BMP_temperature;BMP_pressure;BME280_temperature;BME280_humidity;BME280_pressure;Samples;Min_cycle;Max_cycle;Signal;HPM_P1;HPM_P2
2021/06/28 04:33:57;;;;;;;3.95;1.90;;;17.50;92.00;;;;;;5066168;28;20276;-92
2021/06/28 04:36:45;;;;;;;2.28;1.88;;;17.50;92.10;;;;;;5038217;28;20638;-90
2021/06/28 04:39:12;;;;;;;2.75;2.15;;;17.50;92.00;;;;;;5053932;28;20249;-92
2021/06/28 04:41:39;;;;;;;2.25;2.05;;;17.60;92.10;;;;;;5068866;28;20200;-93
2021/06/28 04:44:06;;;;;;;2.72;2.10;;;17.60;92.10;;;;;;5066380;28;20217;-92
2021/06/28 04:46:33;;;;;;;3.15;2.10;;;17.70;92.10;;;;;;5065224;28;20315;-92
2021/06/28 04:51:45;;;;;;;1.95;1.80;;;17.80;92.10;;;;;;5056792;28;20628;-92
2021/06/28 04:55:03;;;;;;;4.97;2.08;;;17.80;92.10;;;;;;5074685;28;20247;-91
2021/06/28 04:57:32;;;;;;;2.53;1.92;;;17.90;91.90;;;;;;5070243;28;20247;-92
2021/06/28 04:59:59;;;;;;;2.08;1.88;;;18.00;91.90;;;;;;5076646;28;20279;-91
2021/06/28 05:02:25;;;;;;;2.83;1.80;;;18.10;91.60;;;;;;5075290;28;20655;-91
2021/06/28 05:04:54;;;;;;;2.22;2.03;;;18.10;91.70;;;;;;5060719;28;20297;-92
2021/06/28 05:07:21;;;;;;;2.88;2.20;;;18.10;91.40;;;;;;5047130;28;20198;-90
2021/06/28 05:09:47;;;;;;;3.80;2.13;;;18.20;91.40;;;;;;5056320;28;20289;-90
2021/06/28 05:12:15;;;;;;;3.65;1.90;;;18.20;91.50;;;;;;5056129;28;20182;-89
2021/06/28 05:14:43;;;;;;;5.45;2.33;;;18.30;91.60;;;;;;5064549;28;20221;-90
2021/06/28 05:32:36;;;;;;;2.58;2.38;;;18.80;90.80;;;;;;5051296;28;20229;-92
2021/06/28 05:35:05;;;;;;;5.03;2.50;;;18.90;90.80;;;;;;5043357;28;20572;-92
2021/06/28 05:37:33;;;;;;;2.55;2.35;;;19.00;90.50;;;;;;5038087;28;20288;-91
2021/06/28 05:40:05;;;;;;;3.97;2.55;;;19.10;90.50;;;;;;5057928;28;20237;-92
2021/06/28 05:42:34;;;;;;;2.60;2.40;;;19.20;90.20;;;;;;5034468;28;20195;-92
2021/06/28 05:45:02;;;;;;;2.90;2.40;;;19.30;89.70;;;;;;5053560;28;20198;-91
2021/06/28 05:47:29;;;;;;;4.97;2.70;;;19.40;87.90;;;;;;5015785;28;20275;-92
2021/06/28 05:49:57;;;;;;;4.25;2.13;;;19.50;86.80;;;;;;5044633;28;20231;-92
2021/06/28 05:52:24;;;;;;;4.90;2.90;;;19.60;86.70;;;;;;5018220;28;20680;-92
2021/06/28 05:54:52;;;;;;;4.68;2.90;;;19.70;85.70;;;;;;5052676;28;20589;-92
2021/06/28 05:57:22;;;;;;;3.00;2.60;;;19.80;84.70;;;;;;5051767;28;20199;-92
2021/06/28 05:59:49;;;;;;;5.38;2.75;;;19.80;84.80;;;;;;5045019;28;20225;-92
2021/06/28 06:02:18;;;;;;;3.97;2.75;;;19.80;85.10;;;;;;5051843;28;20655;-92
2021/06/28 06:04:45;;;;;;;3.40;2.90;;;19.90;85.00;;;;;;5033079;28;20226;-92
2021/06/28 06:07:14;;;;;;;4.03;2.55;;;19.90;84.30;;;;;;5035155;28;20222;-92
2021/06/28 06:09:41;;;;;;;4.78;2.80;;;20.00;84.30;;;;;;5038633;28;20318;-92
2021/06/28 06:12:09;;;;;;;4.32;2.80;;;20.10;83.70;;;;;;5035061;28;20198;-92
2021/06/28 06:14:38;;;;;;;3.33;3.00;;;20.10;82.90;;;;;;5040084;28;20229;-91
2021/06/28 06:17:05;;;;;;;4.65;2.90;;;20.20;83.50;;;;;;5035856;28;20708;-92
2021/06/28 06:19:31;;;;;;;4.60;2.85;;;20.20;82.90;;;;;;5035258;28;20240;-93
2021/06/28 06:21:58;;;;;;;4.28;2.83;;;20.40;82.50;;;;;;5042998;28;20209;-92
2021/06/28 06:24:30;;;;;;;5.95;3.00;;;20.40;82.20;;;;;;5035206;28;20234;-92
2021/06/28 06:26:58;;;;;;;4.10;3.10;;;20.50;81.40;;;;;;5027824;28;20220;-91
2021/06/28 06:29:25;;;;;;;3.05;2.55;;;20.50;81.20;;;;;;5047911;28;20229;-92
2021/06/28 06:31:51;;;;;;;5.90;3.40;;;20.60;81.20;;;;;;5074510;28;20228;-92
2021/06/28 06:34:19;;;;;;;2.90;2.70;;;20.60;80.10;;;;;;5074807;28;20216;-92
2021/06/28 06:36:47;;;;;;;4.38;3.25;;;20.70;81.30;;;;;;5074759;28;20205;-92
2021/06/28 06:39:14;;;;;;;3.92;3.40;;;20.70;81.30;;;;;;5074541;28;20228;-93
2021/06/28 06:41:42;;;;;;;4.50;2.92;;;20.80;81.40;;;;;;5072869;28;20296;-92
2021/06/28 06:44:09;;;;;;;4.88;3.40;;;20.80;78.90;;;;;;5073626;28;20595;-92
2021/06/28 06:46:38;;;;;;;4.38;3.03;;;21.00;78.50;;;;;;5074076;28;20225;-92
2021/06/28 06:49:06;;;;;;;3.22;3.00;;;21.00;78.60;;;;;;5077939;28;20252;-90
2021/06/28 06:54:14;;;;;;;3.50;2.97;;;21.30;76.30;;;;;;5075914;28;20240;-92
2021/06/28 06:59:23;;;;;;;3.45;3.15;;;21.50;77.00;;;;;;5074412;28;20232;-92
2021/06/28 07:01:50;;;;;;;3.55;3.25;;;21.50;76.20;;;;;;5068030;28;20213;-92
2021/06/28 07:04:18;;;;;;;7.35;3.10;;;21.60;75.40;;;;;;5073751;28;20225;-91
2021/06/28 07:06:45;;;;;;;4.65;3.10;;;21.70;74.90;;;;;;5074639;28;20275;-92
2021/06/28 07:09:12;;;;;;;4.68;2.92;;;21.70;72.30;;;;;;5073563;28;20235;-92
2021/06/28 07:11:38;;;;;;;2.95;2.75;;;21.90;70.30;;;;;;5073162;28;20205;-90
2021/06/28 07:14:07;;;;;;;3.05;2.85;;;22.50;68.30;;;;;;5072539;28;20228;-90
2021/06/28 07:16:33;;;;;;;4.20;3.03;;;23.30;66.30;;;;;;5071946;28;20296;-89
2021/06/28 07:19:02;;;;;;;3.17;2.50;;;25.30;55.60;;;;;;5071905;28;20220;-91
2021/06/28 07:21:30;;;;;;;4.10;2.70;;;28.20;39.60;;;;;;5069492;28;20213;-91
2021/06/28 07:23:58;;;;;;;2.85;2.65;;;29.90;29.80;;;;;;5069276;28;20225;-89
2021/06/28 07:26:25;;;;;;;3.10;2.80;;;29.90;29.60;;;;;;5074472;28;20915;-90
2021/06/28 07:28:52;;;;;;;3.05;2.85;;;30.40;29.50;;;;;;5075999;28;20283;-90
2021/06/28 07:31:21;;;;;;;3.00;2.70;;;30.30;30.00;;;;;;5072329;28;20207;-89
2021/06/28 07:33:48;;;;;;;4.75;3.60;;;29.20;31.60;;;;;;5067148;28;20204;-89
2021/06/28 07:36:15;;;;;;;3.78;3.47;;;28.10;35.30;;;;;;5070887;28;20200;-89
2021/06/28 07:38:42;;;;;;;2.80;2.60;;;27.20;37.60;;;;;;5071165;28;20280;-89
2021/06/28 07:41:09;;;;;;;2.95;2.65;;;26.50;39.30;;;;;;5071570;28;20201;-88
2021/06/28 07:43:37;;;;;;;3.13;2.92;;;25.60;42.00;;;;;;5070419;28;20296;-88
2021/06/28 07:46:05;;;;;;;2.85;2.65;;;25.10;47.20;;;;;;5071850;28;20225;-88
2021/06/28 07:48:33;;;;;;;3.33;3.03;;;24.90;47.00;;;;;;5074906;28;20209;-91
2021/06/28 07:51:00;;;;;;;3.20;2.90;;;24.10;48.70;;;;;;5069662;28;20220;-90
2021/06/28 07:53:27;;;;;;;3.60;3.05;;;23.90;52.30;;;;;;5067675;28;20229;-91
2021/06/28 07:55:54;;;;;;;2.95;2.75;;;23.80;53.30;;;;;;5060327;28;20231;-90
2021/06/28 07:58:21;;;;;;;3.03;2.83;;;24.00;56.70;;;;;;5072278;28;20201;-91
2021/06/28 08:00:48;;;;;;;2.70;2.50;;;24.30;51.90;;;;;;5071837;28;20228;-90
2021/06/28 08:03:15;;;;;;;2.83;2.58;;;24.60;50.20;;;;;;5071984;28;20201;-91
2021/06/28 08:05:43;;;;;;;3.45;2.83;;;25.00;49.50;;;;;;5069910;28;20642;-89
2021/06/28 08:08:10;;;;;;;3.45;2.65;;;25.20;48.40;;;;;;5065427;28;20556;-89
2021/06/28 08:10:37;;;;;;;3.53;2.40;;;25.40;44.60;;;;;;5071198;28;20304;-86
2021/06/28 08:13:04;;;;;;;2.80;2.35;;;25.80;42.90;;;;;;5071470;28;20482;-87
2021/06/28 08:15:31;;;;;;;4.25;2.72;;;26.10;41.80;;;;;;5070952;28;20232;-89
2021/06/28 08:17:58;;;;;;;3.70;2.70;;;26.60;41.20;;;;;;5071106;28;20284;-89
2021/06/28 08:20:24;;;;;;;2.85;2.65;;;28.00;36.60;;;;;;5071028;28;20224;-89
2021/06/28 08:22:53;;;;;;;5.55;2.97;;;29.30;33.00;;;;;;5070164;28;20220;-89
2021/06/28 08:25:23;;;;;;;5.28;2.78;;;31.20;29.10;;;;;;5070600;28;20239;-90
2021/06/28 08:27:51;;;;;;;4.40;3.00;;;33.00;24.10;;;;;;5071778;28;20405;-90
2021/06/28 08:30:19;;;;;;;3.78;3.00;;;34.30;20.00;;;;;;5071204;28;20274;-89
2021/06/28 08:32:46;;;;;;;3.17;2.97;;;35.20;19.20;;;;;;5070610;28;20201;-90
2021/06/28 08:35:13;;;;;;;5.20;3.00;;;36.50;17.30;;;;;;5070704;28;20222;-91
2021/06/28 08:37:39;;;;;;;6.35;3.17;;;37.00;16.80;;;;;;5069312;28;20205;-91
2021/06/28 08:40:10;;;;;;;3.40;3.20;;;36.40;16.90;;;;;;5070121;28;20224;-90
2021/06/28 08:42:38;;;;;;;3.40;3.20;;;37.30;15.50;;;;;;5061896;28;20284;-91
2021/06/28 08:45:06;;;;;;;3.65;3.40;;;38.10;15.00;;;;;;5064111;28;20212;-91
2021/06/28 08:47:33;;;;;;;3.70;3.25;;;36.70;16.90;;;;;;5071488;28;20225;-89
2021/06/28 08:50:01;;;;;;;3.80;3.40;;;37.50;14.80;;;;;;5071658;28;20228;-91
2021/06/28 08:52:30;;;;;;;3.60;3.38;;;37.60;14.70;;;;;;5069193;28;20287;-92
2021/06/28 08:54:57;;;;;;;4.38;3.72;;;38.20;13.90;;;;;;5064443;28;20231;-91
2021/06/28 08:57:25;;;;;;;36.70;33.75;;;38.20;13.90;;;;;;5065898;28;20205;-90
2021/06/28 08:59:52;;;;;;;5.70;3.80;;;38.30;14.40;;;;;;5070771;28;20224;-91
2021/06/28 09:02:19;;;;;;;4.43;3.97;;;38.60;14.00;;;;;;5071832;28;20255;-90
2021/06/28 09:04:57;;;;;;;4.50;4.10;;;38.40;13.90;;;;;;5070307;28;20220;-91
2021/06/28 09:07:24;;;;;;;5.50;4.00;;;38.80;14.50;;;;;;5070066;28;20751;-91
2021/06/28 09:09:51;;;;;;;4.63;4.20;;;39.50;13.00;;;;;;5067239;28;20220;-90
2021/06/28 09:12:19;;;;;;;4.60;4.30;;;39.20;12.40;;;;;;5065357;28;20188;-90
2021/06/28 09:14:49;;;;;;;4.65;4.28;;;39.60;11.80;;;;;;5069516;28;20220;-90
2021/06/28 09:17:27;;;;;;;4.72;4.05;;;39.20;11.60;;;;;;5070247;28;20197;-91
2021/06/28 09:20:15;;;;;;;4.53;4.00;;;38.80;12.10;;;;;;5065141;28;20224;-90
2021/06/28 09:22:43;;;;;;;4.55;4.15;;;39.10;11.50;;;;;;5068552;28;20663;-91
2021/06/28 09:25:29;;;;;;;4.00;3.63;;;39.00;12.40;;;;;;5073363;28;20233;-91
2021/06/28 09:27:56;;;;;;;4.72;3.50;;;37.90;12.80;;;;;;5072396;28;20223;-90
2021/06/28 09:30:24;;;;;;;3.58;3.28;;;37.20;13.40;;;;;;5073155;28;20221;-90
2021/06/28 09:32:52;;;;;;;3.28;3.08;;;36.80;14.40;;;;;;5075309;28;20538;-90
2021/06/28 09:35:29;;;;;;;3.58;3.20;;;36.30;15.00;;;;;;5074307;28;20251;-91
2021/06/28 09:37:56;;;;;;;3.25;3.05;;;36.00;16.30;;;;;;5074835;28;20210;-91
2021/06/28 09:40:25;;;;;;;3.10;2.90;;;35.90;14.40;;;;;;5074203;28;20228;-91
2021/06/28 09:42:52;;;;;;;3.00;2.78;;;35.80;14.10;;;;;;5075053;28;20204;-91
2021/06/28 09:45:24;;;;;;;3.20;2.90;;;36.60;13.40;;;;;;5074633;28;20227;-90
2021/06/28 09:47:53;;;;;;;3.10;2.90;;;36.70;13.00;;;;;;5075488;28;20702;-90
2021/06/28 09:50:23;;;;;;;2.90;2.80;;;36.80;13.50;;;;;;5075342;28;20225;-90
2021/06/28 09:52:52;;;;;;;3.40;3.20;;;37.10;13.00;;;;;;5074500;28;20205;-91
2021/06/28 09:55:21;;;;;;;3.50;3.30;;;37.10;13.00;;;;;;5074071;28;20626;-90
2021/06/28 09:58:12;;;;;;;3.70;3.50;;;37.80;12.00;;;;;;5066179;28;20193;-90
2021/06/28 10:00:41;;;;;;;3.83;3.63;;;38.50;12.50;;;;;;5074907;28;20239;-90
2021/06/28 10:03:25;;;;;;;3.88;3.58;;;39.30;11.60;;;;;;5074808;28;20197;-92
2021/06/28 10:06:04;;;;;;;4.45;3.67;;;39.40;10.50;;;;;;5073851;28;20594;-90
2021/06/28 10:08:35;;;;;;;3.97;3.78;;;39.30;10.90;;;;;;5075950;28;20544;-91
2021/06/28 10:11:16;;;;;;;3.92;3.72;;;38.80;10.70;;;;;;5074369;28;20217;-90
2021/06/28 10:13:46;;;;;;;4.30;3.90;;;38.80;11.00;;;;;;5075085;28;20196;-91
2021/06/28 10:16:13;;;;;;;3.75;3.55;;;38.10;11.00;;;;;;5072670;28;20204;-90
2021/06/28 10:18:42;;;;;;;4.28;4.00;;;38.10;11.40;;;;;;5044999;28;20902;-90
2021/06/28 10:21:09;;;;;;;4.30;3.92;;;37.90;13.00;;;;;;5066214;28;20215;-90
2021/06/28 10:23:37;;;;;;;4.65;4.25;;;38.30;11.80;;;;;;5072344;28;20208;-91
2021/06/28 10:26:05;;;;;;;4.00;3.72;;;38.30;12.70;;;;;;5073064;28;20276;-91
2021/06/28 10:28:33;;;;;;;4.22;3.83;;;38.60;12.50;;;;;;5072897;28;20225;-92
2021/06/28 10:31:00;;;;;;;3.40;3.20;;;37.00;11.70;;;;;;5072821;28;20295;-91
2021/06/28 10:33:28;;;;;;;3.85;3.65;;;37.10;13.60;;;;;;5073773;28;20205;-90
2021/06/28 10:36:02;;;;;;;3.60;3.40;;;36.80;14.70;;;;;;5069389;28;20220;-90
2021/06/28 10:38:43;;;;;;;3.00;2.80;;;35.30;16.20;;;;;;5070358;28;20295;-90
2021/06/28 10:41:10;;;;;;;3.30;3.10;;;36.50;13.10;;;;;;5066065;28;20209;-90
2021/06/28 10:43:39;;;;;;;3.15;2.95;;;36.90;15.50;;;;;;5071984;28;20204;-90
2021/06/28 10:46:08;;;;;;;3.05;2.85;;;37.30;12.50;;;;;;5060861;28;20209;-90
2021/06/28 10:48:46;;;;;;;2.88;2.70;;;36.70;12.20;;;;;;5068798;28;20220;-91
2021/06/28 10:51:15;;;;;;;3.00;2.80;;;36.60;13.20;;;;;;5070444;28;20223;-91
2021/06/28 10:54:03;;;;;;;2.90;2.70;;;37.00;12.90;;;;;;5071785;28;20217;-90
2021/06/28 10:56:47;;;;;;;2.70;2.60;;;37.10;11.70;;;;;;5066972;28;20197;-90
2021/06/28 10:59:26;;;;;;;2.83;2.60;;;36.20;13.30;;;;;;5071706;28;20220;-90
2021/06/28 11:02:04;;;;;;;2.65;2.53;;;37.10;12.60;;;;;;5072413;28;20555;-90
2021/06/28 11:04:33;;;;;;;2.60;2.47;;;37.60;10.70;;;;;;5068250;28;20220;-90
2021/06/28 11:07:15;;;;;;;2.45;2.25;;;36.90;11.80;;;;;;5061217;28;20231;-91
2021/06/28 11:09:46;;;;;;;2.47;1.92;;;35.60;14.30;;;;;;5057958;28;20212;-89
2021/06/28 11:12:31;;;;;;;4.20;3.90;;;34.60;15.80;;;;;;5065639;28;20243;-89
2021/06/28 11:15:04;;;;;;;2.00;1.90;;;33.60;18.40;;;;;;5069009;28;20216;-89
2021/06/28 11:17:49;;;;;;;3.03;2.03;;;33.70;16.30;;;;;;5071854;28;20494;-89
2021/06/28 11:20:30;;;;;;;1.98;1.85;;;33.30;17.00;;;;;;5071575;28;20592;-89
2021/06/28 11:23:16;;;;;;;2.90;1.67;;;32.70;18.00;;;;;;5072336;28;20200;-90
2021/06/28 11:25:45;;;;;;;2.22;1.80;;;31.70;19.90;;;;;;5068376;28;20224;-89
2021/06/28 11:28:18;;;;;;;2.30;1.92;;;31.70;17.50;;;;;;5071001;28;20718;-90
2021/06/28 11:30:54;;;;;;;2.85;1.90;;;31.60;19.50;;;;;;5070090;28;20221;-89
2021/06/28 11:33:42;;;;;;;2.75;1.70;;;31.80;21.10;;;;;;5062261;28;20739;-90
2021/06/28 11:36:35;;;;;;;2.00;1.90;;;31.60;19.70;;;;;;5063534;28;20205;-89
2021/06/28 11:39:24;;;;;;;13.80;12.40;;;31.50;18.70;;;;;;5059909;28;20247;-89
2021/06/28 11:42:22;;;;;;;2.30;1.98;;;31.50;21.90;;;;;;5071822;28;20607;-90
2021/06/28 11:44:50;;;;;;;2.05;1.70;;;31.60;21.50;;;;;;5071146;28;20291;-90
2021/06/28 11:47:17;;;;;;;3.22;1.55;;;31.30;20.50;;;;;;5072317;28;20221;-90
2021/06/28 11:49:44;;;;;;;3.95;1.70;;;31.00;19.80;;;;;;5064995;28;20240;-89
2021/06/28 11:52:15;;;;;;;2.63;2.35;;;31.00;21.90;;;;;;5069822;28;20193;-89
2021/06/28 11:54:44;;;;;;;2.53;2.05;;;31.00;21.30;;;;;;5071421;28;20228;-90
2021/06/28 11:57:12;;;;;;;1.95;1.85;;;31.10;21.60;;;;;;5070668;28;20200;-89
2021/06/28 11:59:41;;;;;;;1.90;1.80;;;31.00;21.10;;;;;;5071839;28;20232;-90
2021/06/28 12:02:09;;;;;;;3.38;2.03;;;30.90;21.90;;;;;;5072448;28;20200;-89
2021/06/28 12:04:37;;;;;;;2.17;1.90;;;31.00;23.80;;;;;;5065840;28;20213;-89
2021/06/28 12:07:06;;;;;;;2.28;1.50;;;31.00;22.70;;;;;;5072928;28;20197;-89
2021/06/28 12:09:36;;;;;;;2.15;1.80;;;30.90;22.80;;;;;;5068318;28;20227;-91
2021/06/28 12:12:12;;;;;;;1.80;1.70;;;30.80;23.20;;;;;;5072299;28;20200;-89
2021/06/28 12:14:40;;;;;;;2.10;1.80;;;31.00;21.90;;;;;;5072597;28;20568;-90
2021/06/28 12:17:14;;;;;;;2.20;1.80;;;31.00;21.90;;;;;;5072530;28;20929;-89
2021/06/28 12:19:42;;;;;;;1.98;1.80;;;30.80;22.10;;;;;;5071081;28;20224;-90
2021/06/28 12:22:12;;;;;;;1.88;1.75;;;30.80;21.50;;;;;;5070254;28;20204;-89
2021/06/28 12:24:39;;;;;;;2.28;1.90;;;30.80;21.60;;;;;;5071698;28;20351;-89
2021/06/28 12:27:10;;;;;;;4.20;2.20;;;30.70;22.50;;;;;;5072027;28;20588;-90
2021/06/28 12:29:39;;;;;;;3.28;2.10;;;30.70;23.30;;;;;;5070716;28;20224;-91
2021/06/28 12:32:09;;;;;;;6.20;1.98;;;30.60;25.60;;;;;;5072146;28;20214;-90
2021/06/28 12:34:36;;;;;;;2.38;1.75;;;30.30;22.30;;;;;;5070957;28;20239;-90
2021/06/28 12:37:05;;;;;;;2.83;2.00;;;30.40;23.30;;;;;;5071635;28;20197;-90
2021/06/28 13:26:59;;;;;;;2.75;1.95;;;30.50;25.60;;;;;;5395293;22;20240;-89
2021/06/28 13:29:32;;;;;;;2.13;1.90;;;30.50;25.70;;;;;;5038973;28;20218;-89
2021/06/28 14:19:17;;;;;;;2.72;1.75;;;29.80;30.80;;;;;;5059433;28;20220;-89
2021/06/28 14:25:43;;;;;;;3.92;2.25;;;29.90;29.60;;;;;;5061935;28;20200;-89
2021/06/28 14:28:36;;;;;;;7.25;2.28;;;29.90;30.20;;;;;;5057221;28;20312;-89
2021/06/28 14:37:57;;;;;;;4.13;2.00;;;29.40;30.90;;;;;;5057525;28;20264;-88
2021/06/28 14:40:24;;;;;;;2.72;2.00;;;29.20;31.30;;;;;;5040517;28;20206;-90
2021/06/28 14:43:33;;;;;;;2.22;2.00;;;29.40;30.90;;;;;;5056557;28;20189;-89
2021/06/28 14:46:00;;;;;;;7.05;2.20;;;29.60;30.90;;;;;;5056092;28;20228;-89
2021/06/28 14:48:27;;;;;;;3.20;1.88;;;29.70;31.20;;;;;;5057051;28;20255;-90
2021/06/28 15:09:54;;;;;;;3.95;2.00;;;29.80;30.90;;;;;;6006160;22;20229;-91
2021/06/28 15:12:21;;;;;;;2.28;1.83;;;29.90;31.40;;;;;;5038782;28;20232;-91
2021/06/28 15:14:48;;;;;;;3.45;2.20;;;30.00;31.30;;;;;;5028055;28;20285;-91
2021/06/28 15:17:15;;;;;;;2.97;2.10;;;30.00;31.20;;;;;;5034488;28;20198;-92
2021/06/28 15:19:43;;;;;;;2.92;1.83;;;29.80;30.90;;;;;;5035723;28;20228;-93
2021/06/28 15:22:10;;;;;;;2.05;1.80;;;29.70;30.10;;;;;;5040151;28;20214;-91
2021/06/28 15:24:45;;;;;;;2.85;1.80;;;29.50;30.80;;;;;;5035863;28;20602;-93
2021/06/28 15:27:14;;;;;;;2.67;1.70;;;29.20;31.10;;;;;;5037435;28;20185;-91
2021/06/28 15:30:40;;;;;;;2.17;1.80;;;29.00;31.10;;;;;;4994952;28;20199;-91
2021/06/28 15:33:07;;;;;;;4.90;1.73;;;28.80;31.90;;;;;;5033784;28;20209;-90
2021/06/28 15:35:34;;;;;;;2.53;1.90;;;28.70;32.20;;;;;;5027926;28;20214;-91
2021/06/28 15:38:01;;;;;;;3.33;1.80;;;28.80;31.40;;;;;;5017115;28;20199;-92
2021/06/28 15:40:28;;;;;;;5.07;1.60;;;28.80;31.30;;;;;;5008482;28;20201;-90
2021/06/28 15:42:57;;;;;;;4.05;1.90;;;28.90;31.90;;;;;;5025552;28;20198;-93
2021/06/28 15:45:27;;;;;;;2.15;1.60;;;29.10;30.40;;;;;;5018390;28;20577;-91
2021/06/28 15:48:29;;;;;;;3.55;1.70;;;29.10;30.30;;;;;;5016871;28;20207;-91
2021/06/28 16:23:39;;;;;;;4.50;2.42;;;28.50;31.20;;;;;;5035784;28;20190;-90
2021/06/28 16:33:02;;;;;;;3.83;2.08;;;28.30;32.20;;;;;;5023527;28;20191;-89
2021/06/28 16:35:29;;;;;;;2.63;2.42;;;28.20;31.60;;;;;;5016761;28;20206;-90
2021/06/28 16:37:56;;;;;;;2.80;2.22;;;28.10;32.90;;;;;;4982008;28;20215;-89
2021/06/28 16:43:38;;;;;;;3.03;2.40;;;28.00;32.70;;;;;;5033864;28;20217;-90
2021/06/28 16:46:09;;;;;;;2.97;2.70;;;28.00;33.20;;;;;;5030675;28;20198;-89
2021/06/28 16:48:39;;;;;;;3.22;2.75;;;28.10;32.20;;;;;;5055538;28;20214;-89
2021/06/28 16:51:06;;;;;;;5.53;3.05;;;28.20;31.60;;;;;;5066194;28;20225;-90
2021/06/28 16:59:35;;;;;;;3.80;3.50;;;28.20;31.30;;;;;;5110449;28;20219;-90
2021/06/28 17:02:41;;;;;;;3.10;2.90;;;28.20;31.30;;;;;;5115357;28;20627;-89
2021/06/28 17:05:09;;;;;;;3.15;2.85;;;28.10;32.40;;;;;;5113850;28;20195;-89
2021/06/28 17:07:36;;;;;;;7.88;5.25;;;28.10;31.90;;;;;;5096101;28;20200;-91
2021/06/28 17:10:04;;;;;;;4.68;3.25;;;28.00;32.80;;;;;;5113198;28;20316;-90
2021/06/28 17:12:31;;;;;;;3.80;3.50;;;28.00;32.50;;;;;;5112050;28;20503;-89
2021/06/28 17:15:00;;;;;;;3.50;3.20;;;27.90;33.10;;;;;;5102937;28;20223;-89
2021/06/28 17:17:26;;;;;;;3.53;3.22;;;27.80;32.50;;;;;;5097031;28;20204;-89
2021/06/28 17:19:53;;;;;;;4.82;3.42;;;27.80;32.70;;;;;;5103357;28;20232;-89
2021/06/28 17:22:21;;;;;;;4.40;3.28;;;27.70;33.20;;;;;;5096476;28;20309;-89
2021/06/28 17:24:48;;;;;;;3.97;3.30;;;27.60;34.50;;;;;;5111499;28;20219;-90
2021/06/28 17:27:15;;;;;;;3.88;3.10;;;27.50;34.60;;;;;;5100020;28;20654;-89
2021/06/28 17:36:32;;;;;;;3.35;2.88;;;27.50;34.10;;;;;;5092431;28;20181;-91
2021/06/28 17:38:59;;;;;;;3.30;3.05;;;27.50;34.00;;;;;;5102932;28;20236;-88
2021/06/28 17:41:26;;;;;;;4.22;3.33;;;27.50;34.10;;;;;;5106701;28;20193;-88
2021/06/28 17:43:53;;;;;;;3.85;3.30;;;27.40;34.20;;;;;;5108242;28;20204;-88
2021/06/28 17:46:20;;;;;;;4.38;3.13;;;27.30;35.00;;;;;;5096959;28;20207;-88
2021/06/28 17:51:28;;;;;;;4.65;3.47;;;27.30;36.20;;;;;;5090897;28;20607;-90
2021/06/28 17:53:57;;;;;;;3.55;3.25;;;27.30;36.10;;;;;;5102422;28;20220;-89
2021/06/28 17:56:24;;;;;;;4.05;3.30;;;27.20;36.20;;;;;;5095936;28;20211;-89
2021/06/28 18:01:33;;;;;;;4.28;3.20;;;27.00;37.50;;;;;;5086747;28;20208;-87
2021/06/28 18:04:02;;;;;;;5.75;3.35;;;26.90;37.40;;;;;;5102386;28;20634;-86
2021/06/28 18:06:28;;;;;;;3.67;2.83;;;26.80;37.40;;;;;;5079884;28;20201;-87
2021/06/28 18:08:57;;;;;;;4.15;3.35;;;26.70;37.40;;;;;;5080287;28;20239;-86
2021/06/28 18:11:24;;;;;;;4.70;3.10;;;26.60;37.20;;;;;;5089416;28;20625;-86
2021/06/28 18:13:53;;;;;;;8.13;4.20;;;26.50;37.20;;;;;;5084517;28;20200;-89
2021/06/28 18:20:07;;;;;;;6.07;3.28;;;26.40;37.10;;;;;;5079497;28;20224;-88
2021/06/28 18:26:44;;;;;;;5.43;3.67;;;26.20;37.00;;;;;;5098207;28;20203;-88
2021/06/28 18:29:24;;;;;;;4.32;3.28;;;26.10;36.90;;;;;;5097636;28;20269;-91
2021/06/28 18:31:51;;;;;;;3.83;3.53;;;26.00;36.80;;;;;;5069271;28;20199;-91
2021/06/28 18:34:19;;;;;;;4.55;3.67;;;26.00;36.80;;;;;;5056223;28;20298;-92
2021/06/28 18:36:47;;;;;;;3.95;3.65;;;25.80;36.80;;;;;;5078554;28;20212;-92
2021/06/28 18:39:15;;;;;;;3.58;3.28;;;25.80;37.60;;;;;;5084680;28;20231;-91
2021/06/28 18:41:49;;;;;;;4.75;3.90;;;25.70;37.80;;;;;;5086352;28;20197;-91
2021/06/28 18:44:18;;;;;;;4.47;3.03;;;25.70;37.80;;;;;;5085812;28;20228;-91
2021/06/28 18:46:48;;;;;;;3.33;3.03;;;25.60;37.40;;;;;;5078286;28;20205;-90
2021/06/28 18:49:15;;;;;;;3.03;2.80;;;25.70;37.80;;;;;;5089723;28;20545;-92
2021/06/28 18:51:44;;;;;;;4.80;3.30;;;25.70;36.70;;;;;;5086763;28;20196;-91
2021/06/28 18:54:13;;;;;;;4.60;3.10;;;25.60;36.70;;;;;;5088429;28;20224;-91
2021/06/28 18:56:42;;;;;;;3.45;3.10;;;25.50;38.00;;;;;;5080002;28;20215;-92
2021/06/28 19:01:54;;;;;;;3.20;3.00;;;25.50;36.50;;;;;;5081684;28;20205;-91
2021/06/28 19:04:21;;;;;;;6.35;3.00;;;25.50;36.50;;;;;;5083064;28;20796;-92
2021/06/28 19:06:51;;;;;;;4.97;3.10;;;25.40;36.70;;;;;;5087292;28;20215;-91
2021/06/28 19:09:23;;;;;;;4.13;3.20;;;25.40;36.50;;;;;;5068049;28;20250;-90
2021/06/28 19:11:51;;;;;;;3.58;2.97;;;25.40;36.50;;;;;;5066469;28;20241;-90
2021/06/28 19:14:27;;;;;;;11.05;3.08;;;25.30;37.00;;;;;;5067527;28;20220;-91
2021/06/28 19:16:55;;;;;;;3.92;3.17;;;25.20;37.60;;;;;;5083183;28;20188;-90
2021/06/28 19:19:23;;;;;;;4.88;3.30;;;25.10;39.00;;;;;;5081120;28;20232;-90
2021/06/28 19:21:52;;;;;;;3.03;2.83;;;25.00;39.00;;;;;;5088872;28;20352;-90
2021/06/28 19:24:19;;;;;;;4.60;3.00;;;24.90;38.80;;;;;;5073322;28;20274;-90
2021/06/28 19:26:46;;;;;;;2.95;2.75;;;24.80;39.00;;;;;;5078339;28;20219;-89
2021/06/28 19:29:14;;;;;;;3.65;3.30;;;24.80;39.20;;;;;;5094346;28;20234;-90
2021/06/28 19:31:44;;;;;;;44.40;39.80;;;24.70;39.90;;;;;;5091428;28;21018;-91
2021/06/28 19:34:11;;;;;;;3.78;3.47;;;24.70;41.40;;;;;;5093753;28;20220;-89
2021/06/28 19:36:38;;;;;;;3.67;3.28;;;24.60;41.10;;;;;;5098455;28;20193;-89
2021/06/28 19:39:06;;;;;;;3.47;2.85;;;24.60;41.10;;;;;;5092433;28;20224;-89
2021/06/28 19:41:34;;;;;;;3.25;2.95;;;24.50;42.20;;;;;;5095321;28;20199;-89
2021/06/28 19:44:03;;;;;;;3.30;3.00;;;24.40;43.00;;;;;;5081354;28;20281;-90
2021/06/28 19:46:31;;;;;;;5.55;3.20;;;24.30;43.50;;;;;;5085615;28;20737;-91
2021/06/28 19:48:59;;;;;;;4.95;3.60;;;24.20;43.20;;;;;;5084335;28;20216;-90
2021/06/28 19:51:26;;;;;;;24.85;22.25;;;24.20;44.60;;;;;;5079518;28;20300;-90
2021/06/28 19:53:53;;;;;;;174.63;148.45;;;24.20;44.70;;;;;;5053402;28;20223;-90
2021/06/28 19:56:22;;;;;;;322.10;286.95;;;24.20;46.00;;;;;;5068866;28;20575;-90
2021/06/28 19:58:50;;;;;;;17.67;12.60;;;24.10;46.20;;;;;;5093461;28;20204;-91
2021/06/28 20:01:17;;;;;;;7.78;6.57;;;24.00;46.50;;;;;;5074326;28;20254;-94
2021/06/28 20:29:32;;;;;;;3.55;3.25;;;23.60;51.20;;;;;;5079465;28;20236;-93
2021/06/28 20:34:43;;;;;;;4.50;3.40;;;23.50;51.40;;;;;;5051631;28;20668;-94
2021/06/28 20:52:16;;;;;;;3.40;3.10;;;23.30;53.80;;;;;;5090798;28;20205;-93
2021/06/28 20:54:44;;;;;;;6.20;3.40;;;23.30;53.70;;;;;;5107784;28;20707;-93
2021/06/28 21:08:02;;;;;;;4.28;3.30;;;23.90;50.70;;;;;;5084853;28;20188;-94
2021/06/28 21:20:00;;;;;;;3.75;3.40;;;24.00;51.00;;;;;;5065542;28;20276;-90
2021/06/28 21:22:27;;;;;;;7.85;3.30;;;24.10;48.40;;;;;;5091794;28;20552;-90
2021/06/28 21:24:54;;;;;;;8.52;3.42;;;24.10;48.90;;;;;;5083677;28;20224;-90
2021/06/28 21:27:21;;;;;;;3.42;2.80;;;24.10;51.70;;;;;;5087341;28;20208;-90
2021/06/28 21:29:49;;;;;;;5.63;3.17;;;23.90;49.60;;;;;;5087476;28;20599;-90
2021/06/28 21:32:16;;;;;;;6.00;2.90;;;23.70;50.60;;;;;;5075582;28;20204;-90
2021/06/28 21:34:44;;;;;;;7.85;2.65;;;23.50;51.30;;;;;;5089084;28;20224;-90
2021/06/28 21:37:11;;;;;;;3.47;2.70;;;23.30;52.40;;;;;;5078084;28;20204;-92
2021/06/28 21:39:38;;;;;;;5.07;2.95;;;22.90;56.50;;;;;;5066820;28;20240;-93
2021/06/28 21:42:06;;;;;;;5.80;2.97;;;22.50;59.40;;;;;;5076970;28;20193;-93
2021/06/28 21:44:33;;;;;;;9.20;7.43;;;22.20;66.00;;;;;;5097352;28;20674;-90
2021/06/28 21:49:42;;;;;;;5.03;4.18;;;21.00;83.10;;;;;;5064815;28;20305;-91
2021/06/28 21:52:11;;;;;;;3.80;3.03;;;20.60;90.20;;;;;;5091168;28;20623;-91
2021/06/28 21:54:39;;;;;;;4.93;3.92;;;20.30;90.70;;;;;;5093393;28;20665;-90
2021/06/28 21:57:06;;;;;;;5.20;4.20;;;20.20;91.40;;;;;;5091868;28;20540;-90
2021/06/28 21:59:33;;;;;;;4.20;3.15;;;20.00;91.50;;;;;;5093586;28;20220;-90
2021/06/28 22:02:01;;;;;;;4.13;3.42;;;19.90;91.70;;;;;;5098588;28;20211;-91
2021/06/28 22:04:29;;;;;;;4.25;3.50;;;19.70;92.90;;;;;;5086875;28;20699;-90
2021/06/28 22:06:57;;;;;;;4.82;3.83;;;19.60;92.90;;;;;;5092780;28;20200;-90
2021/06/28 22:09:26;;;;;;;6.70;5.10;;;19.70;94.10;;;;;;5084975;28;20237;-90
2021/06/28 22:11:53;;;;;;;6.35;4.05;;;19.80;94.60;;;;;;5094874;28;20228;-90
2021/06/28 22:14:20;;;;;;;4.10;3.38;;;19.80;94.30;;;;;;5080843;28;20643;-90
2021/06/28 22:16:48;;;;;;;5.32;3.95;;;19.90;94.60;;;;;;5089444;28;20198;-90
2021/06/28 22:19:17;;;;;;;4.55;3.60;;;20.00;94.50;;;;;;5082300;28;20244;-90